sensor_id;sensor_type;location;lat;lon;timestamp;P1;durP1;ratioP1;P2;durP2;ratioP2
76194;SDS011;64964;48.694;21.206;2022-12-29T00:01:24;25.00;;;11.40;;
76194;SDS011;64964;48.694;21.206;2022-12-29T00:03:49;19.50;;;9.73;;
76194;SDS011;64964;48.694;21.206;2022-12-29T00:06:14;17.17;;;9.70;;
76194;SDS011;64964;48.694;21.206;2022-12-29T00:08:40;19.63;;;9.88;;
76194;SDS011;64964;48.694;21.206;2022-12-29T00:11:10;23.07;;;9.97;;
76194;SDS011;64964;48.694;21.206;2022-12-29T00:13:43;17.42;;;9.30;;
76194;SDS011;64964;48.694;21.206;2022-12-29T00:16:28;23.77;;;10.60;;
76194;SDS011;64964;48.694;21.206;2022-12-29T00:18:54;25.70;;;11.73;;
76194;SDS011;64964;48.694;21.206;2022-12-29T00:21:20;23.17;;;12.13;;
76194;SDS011;64964;48.694;21.206;2022-12-29T00:24:05;29.42;;;12.32;;
76194;SDS011;64964;48.694;21.206;2022-12-29T00:26:53;24.33;;;12.20;;
76194;SDS011;64964;48.694;21.206;2022-12-29T00:29:41;25.17;;;11.38;;
76194;SDS011;64964;48.694;21.206;2022-12-29T00:32:25;24.40;;;11.07;;
76194;SDS011;64964;48.694;21.206;2022-12-29T00:35:09;26.07;;;11.57;;
76194;SDS011;64964;48.694;21.206;2022-12-29T00:37:43;27.55;;;11.65;;
76194;SDS011;64964;48.694;21.206;2022-12-29T00:40:31;24.17;;;11.60;;
76194;SDS011;64964;48.694;21.206;2022-12-29T00:43:15;26.27;;;11.48;;
76194;SDS011;64964;48.694;21.206;2022-12-29T00:45:59;21.10;;;11.18;;
76194;SDS011;64964;48.694;21.206;2022-12-29T00:48:24;21.40;;;10.90;;
76194;SDS011;64964;48.694;21.206;2022-12-29T00:51:08;22.67;;;11.35;;
76194;SDS011;64964;48.694;21.206;2022-12-29T00:53:34;27.27;;;10.47;;
76194;SDS011;64964;48.694;21.206;2022-12-29T00:56:00;25.00;;;11.23;;
76194;SDS011;64964;48.694;21.206;2022-12-29T00:58:29;21.42;;;10.32;;
76194;SDS011;64964;48.694;21.206;2022-12-29T01:01:28;24.13;;;11.07;;
76194;SDS011;64964;48.694;21.206;2022-12-29T01:03:46;27.33;;;12.00;;
76194;SDS011;64964;48.694;21.206;2022-12-29T01:06:12;21.97;;;10.80;;
76194;SDS011;64964;48.694;21.206;2022-12-29T01:08:37;29.52;;;12.23;;
76194;SDS011;64964;48.694;21.206;2022-12-29T01:11:04;20.90;;;11.20;;
76194;SDS011;64964;48.694;21.206;2022-12-29T01:13:34;24.23;;;11.73;;
76194;SDS011;64964;48.694;21.206;2022-12-29T01:16:00;30.17;;;12.90;;
76194;SDS011;64964;48.694;21.206;2022-12-29T01:18:27;32.67;;;13.02;;
76194;SDS011;64964;48.694;21.206;2022-12-29T01:20:59;32.17;;;13.30;;
76194;SDS011;64964;48.694;21.206;2022-12-29T01:23:26;32.28;;;12.20;;
76194;SDS011;64964;48.694;21.206;2022-12-29T01:25:51;28.77;;;11.57;;
76194;SDS011;64964;48.694;21.206;2022-12-29T01:28:17;23.77;;;11.07;;
76194;SDS011;64964;48.694;21.206;2022-12-29T01:30:42;19.57;;;10.13;;
76194;SDS011;64964;48.694;21.206;2022-12-29T01:33:07;22.03;;;10.23;;
76194;SDS011;64964;48.694;21.206;2022-12-29T01:35:32;18.65;;;8.35;;
76194;SDS011;64964;48.694;21.206;2022-12-29T01:37:58;20.83;;;10.07;;
76194;SDS011;64964;48.694;21.206;2022-12-29T01:40:23;19.30;;;9.63;;
76194;SDS011;64964;48.694;21.206;2022-12-29T01:42:49;21.33;;;9.90;;
76194;SDS011;64964;48.694;21.206;2022-12-29T01:45:15;21.67;;;9.70;;
76194;SDS011;64964;48.694;21.206;2022-12-29T01:47:46;19.53;;;9.77;;
76194;SDS011;64964;48.694;21.206;2022-12-29T01:50:22;17.58;;;9.50;;
76194;SDS011;64964;48.694;21.206;2022-12-29T01:53:53;17.73;;;8.93;;
76194;SDS011;64964;48.694;21.206;2022-12-29T01:55:54;18.50;;;9.98;;
76194;SDS011;64964;48.694;21.206;2022-12-29T01:58:23;19.08;;;9.38;;
76194;SDS011;64964;48.694;21.206;2022-12-29T02:00:52;20.77;;;9.47;;
76194;SDS011;64964;48.694;21.206;2022-12-29T02:03:17;20.60;;;8.85;;
76194;SDS011;64964;48.694;21.206;2022-12-29T02:08:29;17.65;;;8.70;;
76194;SDS011;64964;48.694;21.206;2022-12-29T02:10:55;19.30;;;9.27;;
76194;SDS011;64964;48.694;21.206;2022-12-29T02:13:24;16.97;;;9.10;;
76194;SDS011;64964;48.694;21.206;2022-12-29T02:29:28;15.07;;;9.20;;
76194;SDS011;64964;48.694;21.206;2022-12-29T02:31:58;18.97;;;8.70;;
76194;SDS011;64964;48.694;21.206;2022-12-29T02:40:13;16.67;;;8.05;;
76194;SDS011;64964;48.694;21.206;2022-12-29T02:42:48;17.77;;;8.77;;
76194;SDS011;64964;48.694;21.206;2022-12-29T02:45:40;15.43;;;7.90;;
76194;SDS011;64964;48.694;21.206;2022-12-29T02:50:54;18.23;;;8.43;;
76194;SDS011;64964;48.694;21.206;2022-12-29T02:53:25;17.67;;;8.82;;
76194;SDS011;64964;48.694;21.206;2022-12-29T02:56:17;17.15;;;9.02;;
76194;SDS011;64964;48.694;21.206;2022-12-29T02:58:42;15.57;;;8.37;;
76194;SDS011;64964;48.694;21.206;2022-12-29T03:01:29;18.03;;;9.07;;
76194;SDS011;64964;48.694;21.206;2022-12-29T03:07:23;18.40;;;8.98;;
76194;SDS011;64964;48.694;21.206;2022-12-29T03:10:01;24.08;;;9.88;;
76194;SDS011;64964;48.694;21.206;2022-12-29T03:12:40;22.33;;;9.63;;
76194;SDS011;64964;48.694;21.206;2022-12-29T03:15:45;19.98;;;10.02;;
76194;SDS011;64964;48.694;21.206;2022-12-29T03:24:16;22.02;;;10.05;;
76194;SDS011;64964;48.694;21.206;2022-12-29T03:26:45;20.10;;;10.00;;
76194;SDS011;64964;48.694;21.206;2022-12-29T03:29:13;21.40;;;10.55;;
76194;SDS011;64964;48.694;21.206;2022-12-29T03:31:41;19.83;;;10.68;;
76194;SDS011;64964;48.694;21.206;2022-12-29T03:34:08;20.42;;;10.45;;
76194;SDS011;64964;48.694;21.206;2022-12-29T03:36:42;20.38;;;11.10;;
76194;SDS011;64964;48.694;21.206;2022-12-29T03:39:12;20.80;;;9.73;;
76194;SDS011;64964;48.694;21.206;2022-12-29T03:41:40;25.88;;;11.23;;
76194;SDS011;64964;48.694;21.206;2022-12-29T03:44:08;24.98;;;11.30;;
76194;SDS011;64964;48.694;21.206;2022-12-29T03:46:34;24.65;;;11.93;;
76194;SDS011;64964;48.694;21.206;2022-12-29T03:49:00;24.73;;;12.57;;
76194;SDS011;64964;48.694;21.206;2022-12-29T03:51:25;25.27;;;11.97;;
76194;SDS011;64964;48.694;21.206;2022-12-29T03:53:50;22.80;;;11.30;;
76194;SDS011;64964;48.694;21.206;2022-12-29T03:56:16;25.03;;;12.20;;
76194;SDS011;64964;48.694;21.206;2022-12-29T03:58:41;25.52;;;11.95;;
76194;SDS011;64964;48.694;21.206;2022-12-29T04:01:06;25.30;;;11.73;;
76194;SDS011;64964;48.694;21.206;2022-12-29T04:03:32;24.37;;;10.93;;
76194;SDS011;64964;48.694;21.206;2022-12-29T04:05:57;26.23;;;11.47;;
76194;SDS011;64964;48.694;21.206;2022-12-29T04:08:22;22.93;;;10.93;;
76194;SDS011;64964;48.694;21.206;2022-12-29T04:10:48;23.42;;;10.20;;
76194;SDS011;64964;48.694;21.206;2022-12-29T04:13:15;20.83;;;10.93;;
76194;SDS011;64964;48.694;21.206;2022-12-29T04:15:40;22.13;;;10.55;;
76194;SDS011;64964;48.694;21.206;2022-12-29T04:18:07;23.00;;;11.90;;
76194;SDS011;64964;48.694;21.206;2022-12-29T04:20:32;24.15;;;11.02;;
76194;SDS011;64964;48.694;21.206;2022-12-29T04:23:16;22.30;;;11.67;;
76194;SDS011;64964;48.694;21.206;2022-12-29T04:25:44;23.65;;;12.38;;
76194;SDS011;64964;48.694;21.206;2022-12-29T04:28:10;25.70;;;12.80;;
76194;SDS011;64964;48.694;21.206;2022-12-29T04:30:35;24.33;;;11.90;;
76194;SDS011;64964;48.694;21.206;2022-12-29T04:33:01;24.77;;;12.05;;
76194;SDS011;64964;48.694;21.206;2022-12-29T04:35:26;31.20;;;11.87;;
76194;SDS011;64964;48.694;21.206;2022-12-29T04:37:51;23.07;;;10.77;;
76194;SDS011;64964;48.694;21.206;2022-12-29T04:40:17;27.43;;;12.67;;
76194;SDS011;64964;48.694;21.206;2022-12-29T04:42:42;24.50;;;12.07;;
76194;SDS011;64964;48.694;21.206;2022-12-29T04:45:07;27.33;;;11.63;;
76194;SDS011;64964;48.694;21.206;2022-12-29T04:47:33;25.27;;;11.85;;
76194;SDS011;64964;48.694;21.206;2022-12-29T04:49:59;25.20;;;11.80;;
76194;SDS011;64964;48.694;21.206;2022-12-29T04:52:24;25.23;;;12.37;;
76194;SDS011;64964;48.694;21.206;2022-12-29T04:54:50;26.98;;;12.73;;
76194;SDS011;64964;48.694;21.206;2022-12-29T04:57:15;26.70;;;12.43;;
76194;SDS011;64964;48.694;21.206;2022-12-29T04:59:40;26.63;;;11.97;;
76194;SDS011;64964;48.694;21.206;2022-12-29T05:02:06;20.93;;;9.77;;
76194;SDS011;64964;48.694;21.206;2022-12-29T05:04:31;29.57;;;13.07;;
76194;SDS011;64964;48.694;21.206;2022-12-29T05:06:56;23.17;;;9.27;;
76194;SDS011;64964;48.694;21.206;2022-12-29T05:09:22;23.50;;;12.17;;
76194;SDS011;64964;48.694;21.206;2022-12-29T05:11:48;25.55;;;11.75;;
76194;SDS011;64964;48.694;21.206;2022-12-29T05:14:14;21.90;;;11.63;;
76194;SDS011;64964;48.694;21.206;2022-12-29T05:16:39;23.07;;;11.10;;
76194;SDS011;64964;48.694;21.206;2022-12-29T05:19:05;20.63;;;10.67;;
76194;SDS011;64964;48.694;21.206;2022-12-29T05:21:30;20.40;;;10.53;;
76194;SDS011;64964;48.694;21.206;2022-12-29T05:23:56;22.80;;;11.13;;
76194;SDS011;64964;48.694;21.206;2022-12-29T05:26:21;23.60;;;10.50;;
76194;SDS011;64964;48.694;21.206;2022-12-29T05:28:46;23.03;;;11.13;;
76194;SDS011;64964;48.694;21.206;2022-12-29T05:31:12;25.23;;;11.70;;
76194;SDS011;64964;48.694;21.206;2022-12-29T05:33:37;16.27;;;8.50;;
76194;SDS011;64964;48.694;21.206;2022-12-29T05:36:06;21.37;;;10.80;;
76194;SDS011;64964;48.694;21.206;2022-12-29T05:38:33;20.67;;;10.32;;
76194;SDS011;64964;48.694;21.206;2022-12-29T05:40:59;23.52;;;11.18;;
76194;SDS011;64964;48.694;21.206;2022-12-29T05:43:25;19.08;;;10.05;;
76194;SDS011;64964;48.694;21.206;2022-12-29T05:45:50;23.63;;;11.93;;
76194;SDS011;64964;48.694;21.206;2022-12-29T05:48:16;18.67;;;9.68;;
76194;SDS011;64964;48.694;21.206;2022-12-29T05:50:42;26.07;;;10.80;;
76194;SDS011;64964;48.694;21.206;2022-12-29T05:53:07;21.50;;;10.57;;
76194;SDS011;64964;48.694;21.206;2022-12-29T05:55:33;23.80;;;11.00;;
76194;SDS011;64964;48.694;21.206;2022-12-29T05:57:59;23.63;;;11.10;;
76194;SDS011;64964;48.694;21.206;2022-12-29T06:00:24;22.47;;;10.37;;
76194;SDS011;64964;48.694;21.206;2022-12-29T06:02:50;20.88;;;11.23;;
76194;SDS011;64964;48.694;21.206;2022-12-29T06:05:15;26.70;;;11.53;;
76194;SDS011;64964;48.694;21.206;2022-12-29T06:07:41;19.10;;;10.73;;
76194;SDS011;64964;48.694;21.206;2022-12-29T06:10:06;20.95;;;10.32;;
76194;SDS011;64964;48.694;21.206;2022-12-29T06:12:32;25.50;;;11.47;;
76194;SDS011;64964;48.694;21.206;2022-12-29T06:14:57;19.05;;;10.30;;
76194;SDS011;64964;48.694;21.206;2022-12-29T06:17:23;19.97;;;10.33;;
76194;SDS011;64964;48.694;21.206;2022-12-29T06:19:48;18.20;;;9.33;;
76194;SDS011;64964;48.694;21.206;2022-12-29T06:22:13;20.73;;;10.43;;
76194;SDS011;64964;48.694;21.206;2022-12-29T06:24:39;20.73;;;9.43;;
76194;SDS011;64964;48.694;21.206;2022-12-29T06:27:04;18.58;;;9.82;;
76194;SDS011;64964;48.694;21.206;2022-12-29T06:29:30;20.50;;;9.90;;
76194;SDS011;64964;48.694;21.206;2022-12-29T06:31:55;22.00;;;9.77;;
76194;SDS011;64964;48.694;21.206;2022-12-29T06:34:23;17.58;;;9.57;;
76194;SDS011;64964;48.694;21.206;2022-12-29T06:36:50;21.15;;;10.15;;
76194;SDS011;64964;48.694;21.206;2022-12-29T06:39:16;21.87;;;10.17;;
76194;SDS011;64964;48.694;21.206;2022-12-29T06:41:41;19.42;;;9.77;;
76194;SDS011;64964;48.694;21.206;2022-12-29T06:44:06;19.10;;;10.37;;
76194;SDS011;64964;48.694;21.206;2022-12-29T06:46:32;21.80;;;10.07;;
76194;SDS011;64964;48.694;21.206;2022-12-29T06:48:57;19.37;;;9.07;;
76194;SDS011;64964;48.694;21.206;2022-12-29T06:51:22;18.77;;;9.83;;
76194;SDS011;64964;48.694;21.206;2022-12-29T06:53:48;20.00;;;9.82;;
76194;SDS011;64964;48.694;21.206;2022-12-29T06:56:13;17.93;;;9.17;;
76194;SDS011;64964;48.694;21.206;2022-12-29T06:58:38;23.83;;;10.43;;
76194;SDS011;64964;48.694;21.206;2022-12-29T07:01:04;19.27;;;10.17;;
76194;SDS011;64964;48.694;21.206;2022-12-29T07:03:29;19.08;;;10.02;;
76194;SDS011;64964;48.694;21.206;2022-12-29T07:05:55;20.60;;;10.67;;
76194;SDS011;64964;48.694;21.206;2022-12-29T07:08:22;21.92;;;10.35;;
76194;SDS011;64964;48.694;21.206;2022-12-29T07:10:48;20.13;;;11.10;;
76194;SDS011;64964;48.694;21.206;2022-12-29T07:13:13;20.50;;;10.20;;
76194;SDS011;64964;48.694;21.206;2022-12-29T07:15:39;23.83;;;10.52;;
76194;SDS011;64964;48.694;21.206;2022-12-29T07:18:04;26.77;;;11.27;;
76194;SDS011;64964;48.694;21.206;2022-12-29T07:20:30;23.73;;;11.63;;
76194;SDS011;64964;48.694;21.206;2022-12-29T07:22:56;21.27;;;10.70;;
76194;SDS011;64964;48.694;21.206;2022-12-29T07:25:22;27.37;;;12.50;;
76194;SDS011;64964;48.694;21.206;2022-12-29T07:27:47;21.80;;;10.23;;
76194;SDS011;64964;48.694;21.206;2022-12-29T07:30:13;27.13;;;13.03;;
76194;SDS011;64964;48.694;21.206;2022-12-29T07:32:39;22.25;;;11.68;;
76194;SDS011;64964;48.694;21.206;2022-12-29T07:35:04;26.00;;;12.03;;
76194;SDS011;64964;48.694;21.206;2022-12-29T07:37:30;23.40;;;11.35;;
76194;SDS011;64964;48.694;21.206;2022-12-29T07:39:55;21.33;;;10.97;;
76194;SDS011;64964;48.694;21.206;2022-12-29T07:42:21;20.60;;;10.20;;
76194;SDS011;64964;48.694;21.206;2022-12-29T07:44:46;18.77;;;9.50;;
76194;SDS011;64964;48.694;21.206;2022-12-29T07:47:11;22.73;;;10.40;;
76194;SDS011;64964;48.694;21.206;2022-12-29T07:49:37;18.48;;;10.13;;
76194;SDS011;64964;48.694;21.206;2022-12-29T07:52:02;21.90;;;10.33;;
76194;SDS011;64964;48.694;21.206;2022-12-29T07:54:28;22.93;;;11.77;;
76194;SDS011;64964;48.694;21.206;2022-12-29T07:56:53;21.53;;;11.13;;
76194;SDS011;64964;48.694;21.206;2022-12-29T07:59:19;18.75;;;8.35;;
76194;SDS011;64964;48.694;21.206;2022-12-29T08:01:44;20.37;;;10.27;;
76194;SDS011;64964;48.694;21.206;2022-12-29T08:04:09;21.47;;;10.27;;
76194;SDS011;64964;48.694;21.206;2022-12-29T08:06:35;22.70;;;11.70;;
76194;SDS011;64964;48.694;21.206;2022-12-29T08:09:02;23.75;;;11.02;;
76194;SDS011;64964;48.694;21.206;2022-12-29T08:11:28;21.05;;;10.18;;
76194;SDS011;64964;48.694;21.206;2022-12-29T08:13:53;21.17;;;10.23;;
76194;SDS011;64964;48.694;21.206;2022-12-29T08:16:19;24.53;;;11.03;;
76194;SDS011;64964;48.694;21.206;2022-12-29T08:18:44;23.83;;;10.97;;
76194;SDS011;64964;48.694;21.206;2022-12-29T08:21:09;21.77;;;10.20;;
76194;SDS011;64964;48.694;21.206;2022-12-29T08:23:35;21.73;;;10.83;;
76194;SDS011;64964;48.694;21.206;2022-12-29T08:26:01;18.67;;;9.70;;
76194;SDS011;64964;48.694;21.206;2022-12-29T08:28:30;23.80;;;10.32;;
76194;SDS011;64964;48.694;21.206;2022-12-29T08:31:00;20.93;;;10.40;;
76194;SDS011;64964;48.694;21.206;2022-12-29T08:33:26;17.30;;;9.20;;
76194;SDS011;64964;48.694;21.206;2022-12-29T08:35:52;16.83;;;8.73;;
76194;SDS011;64964;48.694;21.206;2022-12-29T08:38:23;20.55;;;10.43;;
76194;SDS011;64964;48.694;21.206;2022-12-29T08:40:48;22.13;;;10.47;;
76194;SDS011;64964;48.694;21.206;2022-12-29T08:43:14;16.33;;;8.90;;
76194;SDS011;64964;48.694;21.206;2022-12-29T08:45:39;21.73;;;11.23;;
76194;SDS011;64964;48.694;21.206;2022-12-29T08:48:04;25.53;;;11.53;;
76194;SDS011;64964;48.694;21.206;2022-12-29T08:50:30;25.83;;;13.38;;
76194;SDS011;64964;48.694;21.206;2022-12-29T08:52:55;29.20;;;15.20;;
76194;SDS011;64964;48.694;21.206;2022-12-29T08:55:20;29.57;;;14.50;;
76194;SDS011;64964;48.694;21.206;2022-12-29T08:57:46;29.67;;;13.93;;
76194;SDS011;64964;48.694;21.206;2022-12-29T09:00:11;19.10;;;9.57;;
76194;SDS011;64964;48.694;21.206;2022-12-29T09:02:37;19.13;;;9.70;;
76194;SDS011;64964;48.694;21.206;2022-12-29T09:05:02;16.73;;;8.07;;
76194;SDS011;64964;48.694;21.206;2022-12-29T09:07:28;22.80;;;10.13;;
76194;SDS011;64964;48.694;21.206;2022-12-29T09:09:53;19.33;;;9.60;;
76194;SDS011;64964;48.694;21.206;2022-12-29T09:12:18;16.70;;;7.97;;
76194;SDS011;64964;48.694;21.206;2022-12-29T09:14:45;24.58;;;9.93;;
76194;SDS011;64964;48.694;21.206;2022-12-29T09:17:11;20.83;;;10.03;;
76194;SDS011;64964;48.694;21.206;2022-12-29T09:19:55;19.35;;;9.15;;
76194;SDS011;64964;48.694;21.206;2022-12-29T09:22:21;20.93;;;9.30;;
76194;SDS011;64964;48.694;21.206;2022-12-29T09:24:46;19.95;;;10.07;;
76194;SDS011;64964;48.694;21.206;2022-12-29T09:27:11;18.93;;;9.47;;
76194;SDS011;64964;48.694;21.206;2022-12-29T09:29:37;17.47;;;8.33;;
76194;SDS011;64964;48.694;21.206;2022-12-29T09:32:03;14.50;;;8.30;;
76194;SDS011;64964;48.694;21.206;2022-12-29T09:34:28;23.00;;;9.30;;
76194;SDS011;64964;48.694;21.206;2022-12-29T09:36:54;20.00;;;9.43;;
76194;SDS011;64964;48.694;21.206;2022-12-29T09:39:21;17.20;;;9.13;;
76194;SDS011;64964;48.694;21.206;2022-12-29T09:47:18;19.98;;;9.90;;
76194;SDS011;64964;48.694;21.206;2022-12-29T09:52:28;20.90;;;10.13;;
76194;SDS011;64964;48.694;21.206;2022-12-29T09:54:58;19.35;;;9.35;;
76194;SDS011;64964;48.694;21.206;2022-12-29T09:57:35;24.73;;;13.07;;
76194;SDS011;64964;48.694;21.206;2022-12-29T10:00:06;23.92;;;12.52;;
76194;SDS011;64964;48.694;21.206;2022-12-29T10:02:42;20.70;;;12.25;;
76194;SDS011;64964;48.694;21.206;2022-12-29T10:08:00;17.75;;;9.93;;
76194;SDS011;64964;48.694;21.206;2022-12-29T10:10:30;19.40;;;8.90;;
76194;SDS011;64964;48.694;21.206;2022-12-29T10:15:46;20.75;;;9.10;;
76194;SDS011;64964;48.694;21.206;2022-12-29T10:20:58;18.27;;;8.18;;
76194;SDS011;64964;48.694;21.206;2022-12-29T10:23:36;17.88;;;8.88;;
76194;SDS011;64964;48.694;21.206;2022-12-29T10:26:08;13.80;;;7.70;;
76194;SDS011;64964;48.694;21.206;2022-12-29T10:29:03;15.48;;;7.93;;
76194;SDS011;64964;48.694;21.206;2022-12-29T10:31:38;15.23;;;6.87;;
76194;SDS011;64964;48.694;21.206;2022-12-29T10:34:14;13.23;;;7.20;;
76194;SDS011;64964;48.694;21.206;2022-12-29T10:36:46;18.17;;;8.43;;
76194;SDS011;64964;48.694;21.206;2022-12-29T10:42:04;13.27;;;7.20;;
76194;SDS011;64964;48.694;21.206;2022-12-29T10:44:37;13.03;;;7.00;;
76194;SDS011;64964;48.694;21.206;2022-12-29T10:47:07;12.68;;;7.07;;
76194;SDS011;64964;48.694;21.206;2022-12-29T10:49:40;12.20;;;6.50;;
76194;SDS011;64964;48.694;21.206;2022-12-29T10:52:07;13.88;;;7.40;;
76194;SDS011;64964;48.694;21.206;2022-12-29T10:57:40;16.20;;;8.75;;
76194;SDS011;64964;48.694;21.206;2022-12-29T11:00:13;29.52;;;15.02;;
76194;SDS011;64964;48.694;21.206;2022-12-29T11:05:10;33.13;;;14.63;;
76194;SDS011;64964;48.694;21.206;2022-12-29T11:07:48;32.37;;;15.43;;
76194;SDS011;64964;48.694;21.206;2022-12-29T11:10:20;27.25;;;13.95;;
76194;SDS011;64964;48.694;21.206;2022-12-29T11:12:55;30.10;;;14.02;;
76194;SDS011;64964;48.694;21.206;2022-12-29T11:15:25;29.23;;;13.82;;
76194;SDS011;64964;48.694;21.206;2022-12-29T11:17:52;26.27;;;13.57;;
76194;SDS011;64964;48.694;21.206;2022-12-29T11:23:00;29.98;;;14.27;;
76194;SDS011;64964;48.694;21.206;2022-12-29T11:25:27;27.85;;;14.50;;
76194;SDS011;64964;48.694;21.206;2022-12-29T11:30:22;28.35;;;14.00;;
76194;SDS011;64964;48.694;21.206;2022-12-29T11:32:54;25.23;;;13.47;;
76194;SDS011;64964;48.694;21.206;2022-12-29T11:35:34;27.88;;;13.48;;
76194;SDS011;64964;48.694;21.206;2022-12-29T11:38:03;28.75;;;14.93;;
76194;SDS011;64964;48.694;21.206;2022-12-29T11:40:30;27.67;;;14.07;;
76194;SDS011;64964;48.694;21.206;2022-12-29T11:42:57;23.88;;;12.90;;
76194;SDS011;64964;48.694;21.206;2022-12-29T11:45:28;30.33;;;13.33;;
76194;SDS011;64964;48.694;21.206;2022-12-29T11:48:00;27.77;;;13.13;;
76194;SDS011;64964;48.694;21.206;2022-12-29T11:50:33;27.30;;;13.25;;
76194;SDS011;64964;48.694;21.206;2022-12-29T11:53:05;29.02;;;13.65;;
76194;SDS011;64964;48.694;21.206;2022-12-29T11:55:41;25.55;;;13.02;;
76194;SDS011;64964;48.694;21.206;2022-12-29T11:58:16;28.77;;;13.17;;
76194;SDS011;64964;48.694;21.206;2022-12-29T12:00:42;27.27;;;13.45;;
76194;SDS011;64964;48.694;21.206;2022-12-29T12:03:13;26.63;;;12.30;;
76194;SDS011;64964;48.694;21.206;2022-12-29T12:05:49;26.80;;;13.48;;
76194;SDS011;64964;48.694;21.206;2022-12-29T12:11:20;23.77;;;12.63;;
76194;SDS011;64964;48.694;21.206;2022-12-29T12:13:58;21.75;;;12.00;;
76194;SDS011;64964;48.694;21.206;2022-12-29T12:19:17;24.00;;;12.93;;
76194;SDS011;64964;48.694;21.206;2022-12-29T12:21:58;21.70;;;10.37;;
76194;SDS011;64964;48.694;21.206;2022-12-29T12:24:44;14.98;;;8.30;;
76194;SDS011;64964;48.694;21.206;2022-12-29T12:27:13;15.73;;;8.52;;
76194;SDS011;64964;48.694;21.206;2022-12-29T12:35:10;14.70;;;8.37;;
76194;SDS011;64964;48.694;21.206;2022-12-29T12:37:41;19.45;;;10.18;;
76194;SDS011;64964;48.694;21.206;2022-12-29T12:51:27;21.10;;;10.23;;
76194;SDS011;64964;48.694;21.206;2022-12-29T12:57:01;23.17;;;11.63;;
76194;SDS011;64964;48.694;21.206;2022-12-29T13:02:46;23.10;;;12.02;;
76194;SDS011;64964;48.694;21.206;2022-12-29T13:08:34;27.67;;;12.52;;
76194;SDS011;64964;48.694;21.206;2022-12-29T13:22:19;33.50;;;13.60;;
76194;SDS011;64964;48.694;21.206;2022-12-29T13:27:46;26.17;;;13.25;;
76194;SDS011;64964;48.694;21.206;2022-12-29T13:30:20;26.88;;;13.02;;
76194;SDS011;64964;48.694;21.206;2022-12-29T13:35:32;23.27;;;12.63;;
76194;SDS011;64964;48.694;21.206;2022-12-29T13:38:18;29.25;;;14.27;;
76194;SDS011;64964;48.694;21.206;2022-12-29T13:40:53;27.38;;;13.32;;
76194;SDS011;64964;48.694;21.206;2022-12-29T13:43:21;27.05;;;13.55;;
76194;SDS011;64964;48.694;21.206;2022-12-29T13:45:55;23.53;;;12.10;;
76194;SDS011;64964;48.694;21.206;2022-12-29T13:48:34;24.77;;;11.73;;
76194;SDS011;64964;48.694;21.206;2022-12-29T13:51:16;22.20;;;11.70;;
76194;SDS011;64964;48.694;21.206;2022-12-29T13:53:49;24.10;;;11.73;;
76194;SDS011;64964;48.694;21.206;2022-12-29T14:05:15;22.38;;;12.20;;
76194;SDS011;64964;48.694;21.206;2022-12-29T14:08:01;23.38;;;11.80;;
76194;SDS011;64964;48.694;21.206;2022-12-29T14:13:27;23.33;;;12.13;;
76194;SDS011;64964;48.694;21.206;2022-12-29T14:15:54;22.63;;;11.07;;
76194;SDS011;64964;48.694;21.206;2022-12-29T14:18:28;22.55;;;11.63;;
76194;SDS011;64964;48.694;21.206;2022-12-29T14:28:36;24.40;;;12.23;;
76194;SDS011;64964;48.694;21.206;2022-12-29T14:31:04;23.10;;;12.02;;
76194;SDS011;64964;48.694;21.206;2022-12-29T14:36:34;22.33;;;11.50;;
76194;SDS011;64964;48.694;21.206;2022-12-29T14:39:01;23.77;;;11.53;;
76194;SDS011;64964;48.694;21.206;2022-12-29T14:41:32;24.55;;;12.80;;
76194;SDS011;64964;48.694;21.206;2022-12-29T14:46:44;30.80;;;13.38;;
76194;SDS011;64964;48.694;21.206;2022-12-29T14:49:18;26.10;;;12.93;;
76194;SDS011;64964;48.694;21.206;2022-12-29T14:51:47;30.40;;;13.30;;
76194;SDS011;64964;48.694;21.206;2022-12-29T14:56:59;20.38;;;11.65;;
76194;SDS011;64964;48.694;21.206;2022-12-29T14:59:28;24.60;;;12.32;;
76194;SDS011;64964;48.694;21.206;2022-12-29T15:01:56;20.63;;;10.43;;
76194;SDS011;64964;48.694;21.206;2022-12-29T15:04:25;26.03;;;12.60;;
76194;SDS011;64964;48.694;21.206;2022-12-29T15:06:55;28.70;;;13.82;;
76194;SDS011;64964;48.694;21.206;2022-12-29T15:09:29;28.05;;;13.90;;
76194;SDS011;64964;48.694;21.206;2022-12-29T15:12:04;23.85;;;13.52;;
76194;SDS011;64964;48.694;21.206;2022-12-29T15:14:38;24.60;;;13.77;;
76194;SDS011;64964;48.694;21.206;2022-12-29T15:19:53;24.77;;;12.88;;
76194;SDS011;64964;48.694;21.206;2022-12-29T15:22:19;29.00;;;13.32;;
76194;SDS011;64964;48.694;21.206;2022-12-29T15:24:45;26.75;;;14.55;;
76194;SDS011;64964;48.694;21.206;2022-12-29T15:27:15;32.40;;;15.63;;
76194;SDS011;64964;48.694;21.206;2022-12-29T15:29:44;40.55;;;18.00;;
76194;SDS011;64964;48.694;21.206;2022-12-29T15:32:24;30.92;;;13.45;;
76194;SDS011;64964;48.694;21.206;2022-12-29T15:34:54;25.60;;;13.45;;
76194;SDS011;64964;48.694;21.206;2022-12-29T15:39:49;31.57;;;15.57;;
76194;SDS011;64964;48.694;21.206;2022-12-29T15:45:26;28.75;;;14.63;;
76194;SDS011;64964;48.694;21.206;2022-12-29T15:47:57;35.42;;;20.83;;
76194;SDS011;64964;48.694;21.206;2022-12-29T15:50:25;29.52;;;14.07;;
76194;SDS011;64964;48.694;21.206;2022-12-29T15:52:53;27.93;;;14.23;;
76194;SDS011;64964;48.694;21.206;2022-12-29T15:57:57;32.03;;;12.95;;
76194;SDS011;64964;48.694;21.206;2022-12-29T16:00:26;29.35;;;14.00;;
76194;SDS011;64964;48.694;21.206;2022-12-29T16:02:58;28.58;;;15.05;;
76194;SDS011;64964;48.694;21.206;2022-12-29T16:05:36;27.00;;;13.97;;
76194;SDS011;64964;48.694;21.206;2022-12-29T16:08:03;35.13;;;15.65;;
76194;SDS011;64964;48.694;21.206;2022-12-29T16:11:04;29.98;;;14.77;;
76194;SDS011;64964;48.694;21.206;2022-12-29T16:13:43;32.50;;;15.52;;
76194;SDS011;64964;48.694;21.206;2022-12-29T16:16:31;31.10;;;16.15;;
76194;SDS011;64964;48.694;21.206;2022-12-29T16:18:59;35.10;;;16.67;;
76194;SDS011;64964;48.694;21.206;2022-12-29T16:21:34;34.05;;;16.77;;
76194;SDS011;64964;48.694;21.206;2022-12-29T16:24:02;34.80;;;16.63;;
76194;SDS011;64964;48.694;21.206;2022-12-29T16:26:31;30.40;;;16.73;;
76194;SDS011;64964;48.694;21.206;2022-12-29T16:28:58;36.57;;;17.27;;
76194;SDS011;64964;48.694;21.206;2022-12-29T16:33:56;34.30;;;15.63;;
76194;SDS011;64964;48.694;21.206;2022-12-29T16:36:23;58.97;;;27.53;;
76194;SDS011;64964;48.694;21.206;2022-12-29T16:41:46;33.65;;;17.23;;
76194;SDS011;64964;48.694;21.206;2022-12-29T16:44:25;34.53;;;16.97;;
76194;SDS011;64964;48.694;21.206;2022-12-29T16:46:57;40.90;;;19.70;;
76194;SDS011;64964;48.694;21.206;2022-12-29T16:49:26;46.08;;;20.23;;
76194;SDS011;64964;48.694;21.206;2022-12-29T16:51:52;41.65;;;21.73;;
76194;SDS011;64964;48.694;21.206;2022-12-29T16:54:33;43.60;;;21.80;;
76194;SDS011;64964;48.694;21.206;2022-12-29T16:57:01;43.40;;;20.05;;
76194;SDS011;64964;48.694;21.206;2022-12-29T17:02:01;85.30;;;31.38;;
76194;SDS011;64964;48.694;21.206;2022-12-29T17:04:31;73.47;;;30.00;;